ADDS TAF Board INFO
 
 

IDs: Format: Expanded Condensed

KIAH - Houston/Bush Intl, TX, US

Issued at 1324 UTC 22 Aug 2014
Time1253Z22/14Z22/15Z22/16Z22/17Z22/18Z22/19Z22/20Z22/21Z22/22Z22/23Z23/00Z23/01Z23/02Z
TypeOBSPRVLPRVLPRVLPRVLPRVLPRVLPRVLPRVLPRVLPRVLPRVLPRVLPRVL
Vis10>6>6>6>6>6>6>6>6>6>6>6>6>6
Cig----------------------------
CoverSCTSCTSCTSCTSCTSCTSCTSCTSCTSCTSCTSCTSCTSCT
FltCat--VFRVFRVFRVFRVFRVFRVFRVFRVFRVFRVFRVFRVFR
Wx----------------------------
WDirVRB180180180150150150150150150150150150150
WSpd044410101010101010101010
WGst----------------------------
R08/26
XWndVRB-4-4-4-9-9-9-9-9-9-9-9-9-9
HWndVRB0005555555555
R09/27
XWndVRB-4-4-4-9-9-9-9-9-9-9-9-9-9
HWndVRB0005555555555
R15/33
XWndVRB-2-2-20000000000
HWndVRB44410101010101010101010
Raw TAF
KIAH 221324Z 2213/2318 18004KT P6SM SCT018 SCT250
  FM221700 15010KT P6SM FEW060 SCT250
  FM230600 18003KT P6SM SKC


Raw METAR
KIAH 221253Z 00000KT 10SM SCT019 SCT250 26/25 A3008 RMK AO2 SLP186 T02610250

TAF Board Legend

Hazard Green Yellow Red Magenta
Visibility (sm) >5 >2.99 >0.99 <=0.99
Ceiling (100 ft) >30 >9.99 >4.99 <=4.99
Wind Speed (kt) <10 <20 <30 >=30
Wind Gust (kt) <10 <20 <30 >=30
Weather No Wx Reported Light precipitation Moderate precipitation Heavy precipitation
Flight Category VFR MVFR IFR LIFR

Page loaded:  13:42 UTC  |   06:42 AM Pacific  |   07:42 AM Mountain  |   08:42 AM Central  |   09:42 AM Eastern

 

ADVISORIES

FORECASTS

FORECASTS

OBSERVATIONS

USER TOOLS

ABOUT US